Murton, United Kingdom
Current Conditions -  °F | °C
As of 3:50 AM on Sunday 21 Dec 2014 (Local Time) from EGXU Reporting Station
Broken Clouds Broken Clouds  
Wind Chill: 40°   Ceiling: 3100
Heat Index: 46°   Visibility: 6mi
Dew Point: 46°   Wind: 14mph
Humidity: 100%   Direction: 250°WSW
Pressure: 30.21"   Gusts: 25mph
Location:  53.97°N, 1.01°W
Report Text: EGXU 210350Z AUTO 25012G22KT 9999 // SCT018/// BKN031/// BKN039/// 08/08 Q1023
Loading
Personal Weather Stations






























Interactive Weather Map New forecast layout! Learn more

10-Day Weather Forecast

Advertisements
Track Severe Weather on mobile